Time;durP1;ratioP1;P1;durP2;ratioP2;P2;SDS_P1;SDS_P2;PMS_P1;PMS_P2;Temp;Humidity;BMP_temperature;BMP_pressure;BME280_temperature;BME280_humidity;BME280_pressure;Samples;Min_cycle;Max_cycle;Signal;HPM_P1;HPM_P2
2023/06/27 00:00:06;;;;;;;0.00;0.00;;;;;;;15.10;71.30;101032.22;5032198;28;20022;-74
2023/06/27 00:02:31;;;;;;;0.00;0.00;;;;;;;15.11;71.36;101037.47;5011397;28;20025;-73
2023/06/27 00:05:00;;;;;;;0.00;0.00;;;;;;;15.09;71.56;101028.63;5043574;28;20059;-75
2023/06/27 00:07:27;;;;;;;0.00;0.00;;;;;;;15.10;71.74;101032.22;5005520;28;20144;-74
2023/06/27 00:09:54;;;;;;;0.00;0.00;;;;;;;15.07;72.01;101025.34;5003270;28;20457;-73
2023/06/27 00:12:20;;;;;;;0.00;0.00;;;;;;;15.10;72.00;101030.28;5013972;28;20030;-75
2023/06/27 00:14:47;;;;;;;0.00;0.00;;;;;;;15.16;72.32;101040.19;5036812;28;20100;-76
2023/06/27 00:17:13;;;;;;;0.00;0.00;;;;;;;15.21;72.06;101042.09;5002414;28;20196;-75
2023/06/27 00:19:39;;;;;;;0.00;0.00;;;;;;;15.22;72.11;101042.94;5037237;28;20619;-75
2023/06/27 00:22:09;;;;;;;0.00;0.00;;;;;;;15.19;72.59;101039.63;5031322;28;20132;-73
2023/06/27 00:24:35;;;;;;;0.00;0.00;;;;;;;15.18;72.90;101043.47;4989629;28;20121;-76
2023/06/27 00:27:01;;;;;;;0.00;0.00;;;;;;;15.12;72.95;101028.06;5025983;28;20033;-76
2023/06/27 00:29:27;;;;;;;0.00;0.00;;;;;;;15.07;73.11;101033.63;5033257;28;20036;-74
2023/06/27 00:31:52;;;;;;;0.00;0.00;;;;;;;15.02;73.54;101039.13;5040333;28;20048;-74
2023/06/27 00:34:18;;;;;;;0.00;0.00;;;;;;;14.96;73.92;101030.06;5011268;28;20475;-74
2023/06/27 00:36:43;;;;;;;0.00;0.00;;;;;;;14.86;74.38;101024.59;5023566;28;20037;-73
2023/06/27 00:39:09;;;;;;;0.00;0.00;;;;;;;14.81;74.61;101033.69;5037599;28;20534;-76
2023/06/27 00:41:34;;;;;;;0.00;0.00;;;;;;;14.81;74.77;101032.88;5006677;28;20451;-74
2023/06/27 00:43:59;;;;;;;0.00;0.00;;;;;;;14.82;74.81;101029.84;5005249;28;20061;-75
2023/06/27 00:46:36;;;;;;;0.00;0.00;;;;;;;14.83;74.59;101026.00;5041763;28;20029;-75
2023/06/27 00:49:02;;;;;;;0.00;0.00;;;;;;;14.85;74.84;101020.22;5022744;28;20021;-74
2023/06/27 00:51:29;;;;;;;0.00;0.00;;;;;;;14.89;74.45;101029.53;5009071;28;20545;-74
2023/06/27 00:53:55;;;;;;;0.00;0.00;;;;;;;14.88;74.51;101029.81;5038389;28;20078;-70
2023/06/27 00:56:21;;;;;;;0.00;0.00;;;;;;;14.91;74.63;101037.50;5010205;28;20047;-72
2023/06/27 00:58:46;;;;;;;0.00;0.00;;;;;;;14.90;74.11;101042.19;5014664;28;20124;-71
2023/06/27 01:01:12;;;;;;;0.00;0.00;;;;;;;14.86;74.66;101034.78;5027290;28;20060;-70
2023/06/27 01:03:37;;;;;;;0.00;0.00;;;;;;;14.86;74.53;101034.78;4971817;28;20061;-70
2023/06/27 01:06:14;;;;;;;0.00;0.00;;;;;;;14.75;74.61;101029.31;5001896;28;20502;-72
2023/06/27 01:08:53;;;;;;;0.00;0.00;;;;;;;14.73;74.96;101031.50;5002321;28;20475;-71
2023/06/27 01:11:24;;;;;;;0.00;0.00;;;;;;;14.68;75.17;101028.78;5025122;28;20037;-73
2023/06/27 01:13:54;;;;;;;0.00;0.00;;;;;;;14.62;75.33;101032.66;5022176;28;20025;-70
2023/06/27 01:16:22;;;;;;;0.00;0.00;;;;;;;14.55;76.18;101035.66;5026981;28;20021;-71
2023/06/27 01:18:50;;;;;;;0.00;0.00;;;;;;;14.50;76.12;101030.16;5028142;28;20663;-71
2023/06/27 01:21:20;;;;;;;0.00;0.00;;;;;;;14.48;76.40;101029.59;5004703;28;20045;-73
2023/06/27 01:23:55;;;;;;;0.00;0.00;;;;;;;14.46;76.65;101032.63;5006053;28;20038;-71
2023/06/27 01:26:22;;;;;;;0.00;0.00;;;;;;;14.46;76.91;101032.63;5011073;28;20037;-73
2023/06/27 01:28:48;;;;;;;0.00;0.00;;;;;;;14.46;77.22;101026.31;5030855;28;20029;-71
2023/06/27 01:31:44;;;;;;;0.00;0.00;;;;;;;14.45;77.15;101014.47;5013128;28;20029;-72
2023/06/27 01:34:22;;;;;;;0.00;0.00;;;;;;;14.46;77.01;101018.88;5010471;28;20041;-71
2023/06/27 01:37:00;;;;;;;0.00;0.00;;;;;;;14.43;77.16;101016.69;5004348;28;20034;-74
2023/06/27 01:39:32;;;;;;;0.00;0.00;;;;;;;14.48;76.92;101016.69;5037434;28;20045;-71
2023/06/27 01:42:06;;;;;;;0.00;0.00;;;;;;;14.49;77.18;101014.75;5027207;28;20036;-71
2023/06/27 01:44:33;;;;;;;0.00;0.00;;;;;;;14.57;77.17;101007.84;5007539;28;20087;-71
2023/06/27 01:46:58;;;;;;;0.00;0.00;;;;;;;14.56;77.06;101009.78;5013293;28;20046;-71
2023/06/27 01:49:24;;;;;;;0.00;0.00;;;;;;;14.58;77.08;101012.25;4990295;28;20551;-71
2023/06/27 01:51:49;;;;;;;0.00;0.00;;;;;;;14.51;77.10;101006.22;5019338;28;20574;-72
2023/06/27 01:54:15;;;;;;;0.00;0.00;;;;;;;14.46;77.45;101016.13;5005317;28;20037;-71
2023/06/27 01:56:40;;;;;;;0.00;0.00;;;;;;;14.39;77.76;101012.00;5042498;28;20025;-71
2023/06/27 01:59:06;;;;;;;0.00;0.00;;;;;;;14.31;78.12;101008.72;5022616;28;20036;-72
2023/06/27 02:01:32;;;;;;;0.00;0.00;;;;;;;14.28;78.06;101002.94;5004126;28;20030;-72
2023/06/27 02:03:57;;;;;;;0.00;0.00;;;;;;;14.33;77.85;101005.69;5031622;28;20034;-72
2023/06/27 02:06:22;;;;;;;0.00;0.00;;;;;;;14.42;77.79;100997.69;5010675;28;20025;-70
2023/06/27 02:08:48;;;;;;;0.00;0.00;;;;;;;14.51;77.52;101000.72;4983148;28;20045;-73
2023/06/27 02:11:14;;;;;;;0.00;0.00;;;;;;;14.58;77.36;101004.00;5005675;28;20029;-72
2023/06/27 02:13:39;;;;;;;0.00;0.00;;;;;;;14.64;77.24;101006.47;4983094;28;20041;-71
2023/06/27 02:16:05;;;;;;;0.00;0.00;;;;;;;14.71;77.08;101017.19;5013231;28;20633;-71
2023/06/27 02:18:30;;;;;;;0.00;0.00;;;;;;;14.73;76.89;101008.66;5024561;28;20037;-73
2023/06/27 02:20:56;;;;;;;0.00;0.00;;;;;;;14.73;76.86;101008.66;5046746;28;20097;-73
2023/06/27 02:23:21;;;;;;;0.00;0.00;;;;;;;14.75;76.87;101015.53;5019424;28;20045;-71
2023/06/27 02:25:47;;;;;;;0.00;0.00;;;;;;;14.73;76.72;101009.47;5003959;28;20034;-70
2023/06/27 02:28:12;;;;;;;0.00;0.00;;;;;;;14.76;76.72;100997.94;5035689;28;20099;-69
2023/06/27 02:30:38;;;;;;;0.00;0.00;;;;;;;14.80;76.58;100999.00;5038512;28;20079;-72
2023/06/27 02:33:03;;;;;;;0.00;0.00;;;;;;;14.80;76.78;101003.69;5017143;28;21507;-71
2023/06/27 02:35:28;;;;;;;0.00;0.00;;;;;;;14.76;76.71;100997.94;5026779;28;20029;-71
2023/06/27 02:37:54;;;;;;;0.00;0.00;;;;;;;14.77;76.48;101005.06;5022818;28;20030;-70
2023/06/27 02:40:19;;;;;;;0.00;0.00;;;;;;;14.75;76.79;101010.03;5011894;28;20337;-73
2023/06/27 02:42:45;;;;;;;0.00;0.00;;;;;;;14.75;77.05;101012.78;4979184;28;20518;-73
2023/06/27 02:45:10;;;;;;;0.00;0.00;;;;;;;14.74;76.62;100994.63;5004445;28;20413;-74
2023/06/27 02:47:38;;;;;;;0.00;0.00;;;;;;;14.69;76.76;100991.91;5039889;28;20039;-73
2023/06/27 02:50:04;;;;;;;0.00;0.00;;;;;;;14.68;76.63;100995.75;4999660;28;21284;-74
2023/06/27 02:52:30;;;;;;;0.00;0.00;;;;;;;14.71;76.71;100995.19;5028215;28;20025;-72
2023/06/27 02:54:55;;;;;;;0.00;0.00;;;;;;;14.70;76.71;100993.53;5045194;28;20029;-73
2023/06/27 02:57:21;;;;;;;0.00;0.00;;;;;;;14.72;76.57;100991.34;5005153;28;20164;-72
2023/06/27 02:59:46;;;;;;;0.00;0.00;;;;;;;14.66;76.62;100989.72;5029465;28;20033;-73
2023/06/27 03:02:12;;;;;;;0.00;0.00;;;;;;;14.55;76.84;100993.56;5021758;28;20387;-73
2023/06/27 03:04:38;;;;;;;0.00;0.00;;;;;;;14.51;76.84;100996.03;5024849;28;20479;-72
2023/06/27 03:07:04;;;;;;;0.00;0.00;;;;;;;14.46;77.40;100993.28;5024303;28;20029;-74
2023/06/27 03:09:30;;;;;;;0.00;0.00;;;;;;;14.41;77.09;100985.88;5014398;28;20419;-73
2023/06/27 03:11:55;;;;;;;0.00;0.00;;;;;;;14.44;77.44;100990.81;5011025;28;20751;-72
2023/06/27 03:14:21;;;;;;;0.00;0.00;;;;;;;14.44;77.43;100988.06;5025709;28;20345;-71
2023/06/27 03:16:47;;;;;;;0.00;0.00;;;;;;;14.47;77.68;100983.91;5023815;28;20037;-74
2023/06/27 03:19:12;;;;;;;0.00;0.00;;;;;;;14.47;77.39;100987.50;5010958;28;20101;-72
2023/06/27 03:21:38;;;;;;;0.00;0.00;;;;;;;14.53;77.53;100995.75;5010177;28;20050;-72
2023/06/27 03:24:04;;;;;;;0.00;0.00;;;;;;;14.50;77.41;100988.88;4988583;28;20030;-72
2023/06/27 03:26:30;;;;;;;0.00;0.00;;;;;;;14.52;77.29;100988.59;5038336;28;20022;-73
2023/06/27 03:28:55;;;;;;;0.00;0.00;;;;;;;14.55;77.36;100994.38;5039580;28;20168;-72
2023/06/27 03:31:21;;;;;;;0.00;0.00;;;;;;;14.55;77.12;100996.31;5015862;28;20022;-75
2023/06/27 03:33:46;;;;;;;0.00;0.00;;;;;;;14.49;77.16;100988.03;5024500;28;20041;-74
2023/06/27 03:36:12;;;;;;;0.00;0.00;;;;;;;14.46;77.46;100994.09;5017988;28;20026;-74
2023/06/27 03:38:37;;;;;;;0.00;0.00;;;;;;;14.48;77.74;101002.94;5026747;28;20033;-75
2023/06/27 03:41:03;;;;;;;0.00;0.00;;;;;;;14.40;77.50;100989.72;5014113;28;20071;-73
2023/06/27 03:43:28;;;;;;;0.00;0.00;;;;;;;14.40;77.97;100997.16;5045783;28;20037;-76
2023/06/27 03:45:53;;;;;;;0.00;0.00;;;;;;;14.35;77.77;100992.47;5024617;28;20033;-73
2023/06/27 03:48:19;;;;;;;0.00;0.00;;;;;;;14.33;77.84;100983.69;5019287;28;20029;-74
2023/06/27 03:50:44;;;;;;;0.00;0.00;;;;;;;14.32;78.00;100979.28;5025902;28;20033;-73
2023/06/27 03:53:10;;;;;;;0.00;0.00;;;;;;;14.32;77.81;100982.03;5039367;28;20034;-75
2023/06/27 03:55:38;;;;;;;0.00;0.00;;;;;;;14.30;77.69;100976.81;5026114;28;20503;-77
2023/06/27 03:58:03;;;;;;;0.00;0.00;;;;;;;14.33;77.54;100975.44;5010119;28;20026;-76
2023/06/27 04:00:29;;;;;;;0.00;0.00;;;;;;;14.35;77.98;100981.47;5012805;28;20028;-75
2023/06/27 04:02:54;;;;;;;0.00;0.00;;;;;;;14.35;77.81;100984.22;5002631;28;20029;-76
2023/06/27 04:05:20;;;;;;;0.00;0.00;;;;;;;14.36;77.53;100977.63;5006699;28;20041;-74
2023/06/27 04:07:46;;;;;;;0.00;0.00;;;;;;;14.34;77.83;100985.34;5010775;28;20427;-75
2023/06/27 04:10:11;;;;;;;0.00;0.00;;;;;;;14.35;77.97;100986.16;5017698;28;20452;-73
2023/06/27 04:12:37;;;;;;;0.00;0.00;;;;;;;14.40;77.71;100989.72;5038064;28;20021;-75
2023/06/27 04:15:03;;;;;;;0.00;0.00;;;;;;;14.36;77.80;100976.81;5026998;28;20112;-76
2023/06/27 04:17:28;;;;;;;0.00;0.00;;;;;;;14.39;77.83;100982.56;5017446;28;20029;-75
2023/06/27 04:19:54;;;;;;;0.00;0.00;;;;;;;14.37;77.99;100984.78;5011318;28;20048;-74
2023/06/27 04:22:19;;;;;;;0.00;0.00;;;;;;;14.35;78.15;100984.22;4986191;28;20057;-75
2023/06/27 04:24:45;;;;;;;0.00;0.00;;;;;;;14.36;78.08;100988.63;5007206;28;20045;-74
2023/06/27 04:27:10;;;;;;;0.00;0.00;;;;;;;14.34;77.74;100974.34;4998402;28;20539;-74
2023/06/27 04:29:37;;;;;;;0.00;0.00;;;;;;;14.34;78.17;100987.25;5009774;28;20435;-74
2023/06/27 04:32:03;;;;;;;0.00;0.00;;;;;;;14.39;78.14;100995.50;4998353;28;20036;-75
2023/06/27 04:34:28;;;;;;;0.00;0.00;;;;;;;14.42;78.19;100989.44;5011924;28;20025;-75
2023/06/27 04:36:54;;;;;;;0.00;0.00;;;;;;;14.39;77.96;100982.56;5037281;28;20084;-76
2023/06/27 04:39:19;;;;;;;0.00;0.00;;;;;;;14.44;77.88;100990.81;5019968;28;20030;-76
2023/06/27 04:41:45;;;;;;;0.00;0.00;;;;;;;14.45;77.91;100995.19;5007571;28;20033;-74
2023/06/27 04:44:10;;;;;;;0.00;0.00;;;;;;;14.49;78.06;100996.31;5016026;28;20104;-74
2023/06/27 04:46:39;;;;;;;0.00;0.00;;;;;;;14.53;77.66;100990.22;5004656;28;20180;-76
2023/06/27 04:49:06;;;;;;;0.00;0.00;;;;;;;14.60;77.46;100999.03;5024121;28;20047;-77
2023/06/27 04:51:34;;;;;;;0.00;0.00;;;;;;;14.59;77.40;100997.41;5009861;28;20030;-77
2023/06/27 04:53:59;;;;;;;0.00;0.00;;;;;;;14.59;77.27;100997.41;4991765;28;20119;-76
2023/06/27 04:56:26;;;;;;;0.00;0.00;;;;;;;14.62;77.55;100991.38;5020219;28;20079;-75
2023/06/27 04:58:54;;;;;;;0.00;0.00;;;;;;;14.68;77.40;100989.44;5006461;28;20053;-75
2023/06/27 05:01:19;;;;;;;0.00;0.00;;;;;;;14.69;77.57;100982.78;5000655;28;20087;-75
2023/06/27 05:03:45;;;;;;;0.00;0.00;;;;;;;14.77;77.42;100988.53;4993743;28;20037;-75
2023/06/27 05:06:11;;;;;;;0.00;0.00;;;;;;;14.77;77.15;100980.28;5020976;28;20373;-75
2023/06/27 05:08:37;;;;;;;0.00;0.00;;;;;;;14.86;77.09;100996.25;4988636;28;20068;-75
2023/06/27 05:11:02;;;;;;;0.00;0.00;;;;;;;14.87;77.43;100997.91;5005491;28;20037;-76
2023/06/27 05:13:28;;;;;;;0.00;0.00;;;;;;;14.93;77.07;100997.56;5015329;28;20064;-75
2023/06/27 05:15:53;;;;;;;0.00;0.00;;;;;;;14.96;76.88;100996.19;4989840;28;20025;-75
2023/06/27 05:18:19;;;;;;;0.00;0.00;;;;;;;15.02;76.83;100995.06;5020188;28;20048;-74
2023/06/27 05:20:45;;;;;;;0.00;0.00;;;;;;;15.11;76.83;101001.66;5022828;28;20691;-77
2023/06/27 05:23:11;;;;;;;0.00;0.00;;;;;;;15.18;76.39;101007.66;5009807;28;20387;-78
2023/06/27 05:25:37;;;;;;;0.00;0.00;;;;;;;15.28;76.02;101008.72;5015710;28;20033;-74
2023/06/27 05:28:03;;;;;;;0.00;0.00;;;;;;;15.33;75.79;101011.44;5025187;28;20029;-77
2023/06/27 05:30:29;;;;;;;0.00;0.00;;;;;;;15.37;75.79;101009.78;5008207;28;20025;-76
2023/06/27 05:32:55;;;;;;;0.00;0.00;;;;;;;15.42;76.22;101008.91;5021323;28;20044;-74
2023/06/27 05:35:21;;;;;;;0.00;0.00;;;;;;;15.47;75.24;101006.97;5024060;28;20531;-74
2023/06/27 05:37:46;;;;;;;0.00;0.00;;;;;;;15.57;75.36;101010.78;5004086;28;20098;-74
2023/06/27 05:40:12;;;;;;;0.00;0.00;;;;;;;15.73;75.17;101008.75;5018885;28;20025;-75
2023/06/27 05:42:38;;;;;;;0.00;0.00;;;;;;;15.91;74.95;101018.28;5015329;28;20084;-74
2023/06/27 05:45:04;;;;;;;0.00;0.00;;;;;;;16.07;74.33;101008.75;5005284;28;20030;-73
2023/06/27 05:47:29;;;;;;;0.00;0.00;;;;;;;16.20;73.75;101007.28;5006495;28;20033;-74
2023/06/27 05:49:55;;;;;;;0.00;0.00;;;;;;;16.30;73.26;101006.38;5001112;28;20091;-75
2023/06/27 05:52:23;;;;;;;0.00;0.00;;;;;;;16.46;72.97;101005.09;5022074;28;20514;-76
2023/06/27 05:54:51;;;;;;;0.00;0.00;;;;;;;16.64;72.49;101005.47;5010587;28;21394;-74
2023/06/27 05:57:17;;;;;;;0.00;0.00;;;;;;;16.68;71.47;101006.53;5009277;28;20040;-75
2023/06/27 05:59:42;;;;;;;0.00;0.00;;;;;;;16.69;71.25;101013.69;5015869;28;20033;-73
2023/06/27 06:02:08;;;;;;;0.00;0.00;;;;;;;16.66;71.25;101003.22;5021524;28;20022;-74
2023/06/27 06:04:33;;;;;;;0.00;0.00;;;;;;;16.66;71.49;101009.59;5032526;28;20040;-73
2023/06/27 06:06:59;;;;;;;0.00;0.00;;;;;;;16.72;71.25;101002.06;5009723;28;20584;-76
2023/06/27 06:09:25;;;;;;;0.00;0.00;;;;;;;16.79;71.06;101013.56;5019399;28;20495;-74
2023/06/27 06:11:51;;;;;;;0.00;0.00;;;;;;;16.97;71.14;101008.44;5018197;28;20030;-73
2023/06/27 06:14:16;;;;;;;0.00;0.00;;;;;;;17.04;70.19;101000.59;5024389;28;20049;-73
2023/06/27 06:16:41;;;;;;;0.00;0.00;;;;;;;17.10;69.99;101013.25;4999729;28;20041;-74
2023/06/27 06:19:07;;;;;;;0.00;0.00;;;;;;;17.15;70.07;101009.59;5019784;28;20029;-73
2023/06/27 06:21:33;;;;;;;0.00;0.00;;;;;;;17.34;69.70;101009.63;4986288;28;20081;-75
2023/06/27 06:23:58;;;;;;;0.00;0.00;;;;;;;17.52;68.85;101011.59;5013501;28;20508;-73
2023/06/27 06:26:24;;;;;;;0.00;0.00;;;;;;;17.66;69.09;101013.59;5007057;28;20037;-73
2023/06/27 06:28:49;;;;;;;0.00;0.00;;;;;;;17.67;68.01;101009.69;4998815;28;20033;-73
2023/06/27 06:31:16;;;;;;;0.00;0.00;;;;;;;17.65;67.90;101000.88;5003220;28;20119;-73
2023/06/27 06:33:48;;;;;;;0.00;0.00;;;;;;;17.77;68.26;101010.38;5013310;28;20439;-75
2023/06/27 06:36:55;;;;;;;0.00;0.00;;;;;;;17.91;67.95;101004.91;5036065;28;20021;-77
2023/06/27 06:39:21;;;;;;;0.00;0.00;;;;;;;18.02;67.29;100993.69;4994009;28;20207;-80
2023/06/27 06:41:47;;;;;;;0.00;0.00;;;;;;;18.08;66.93;100982.22;5006941;28;20125;-81
2023/06/27 06:44:12;;;;;;;0.00;0.00;;;;;;;18.32;67.30;100989.56;5011085;28;21114;-82
2023/06/27 06:46:38;;;;;;;0.00;0.00;;;;;;;18.66;65.81;101005.81;5008964;28;20436;-82
2023/06/27 06:49:06;;;;;;;0.00;0.00;;;;;;;18.69;65.70;100973.09;5003444;28;20535;-81
2023/06/27 06:51:31;;;;;;;0.00;0.00;;;;;;;18.89;64.67;100996.81;4993151;28;20388;-82
2023/06/27 06:53:57;;;;;;;0.00;0.00;;;;;;;18.95;64.57;100987.25;5004964;28;20036;-80
2023/06/27 06:56:22;;;;;;;0.00;0.00;;;;;;;19.02;63.89;100987.66;5019100;28;20026;-79
2023/06/27 06:58:47;;;;;;;0.00;0.00;;;;;;;19.02;64.12;100985.72;4999278;28;20092;-75
2023/06/27 07:01:13;;;;;;;0.00;0.00;;;;;;;18.99;63.92;100993.84;5009583;28;20026;-74
2023/06/27 07:03:38;;;;;;;0.00;0.00;;;;;;;18.93;64.58;100995.09;5018001;28;20476;-75
2023/06/27 07:06:04;;;;;;;0.00;0.00;;;;;;;18.73;64.51;100974.13;5036935;28;20037;-75
2023/06/27 07:08:29;;;;;;;0.00;0.00;;;;;;;18.86;64.38;100998.25;4984385;28;20435;-75
2023/06/27 07:10:55;;;;;;;0.00;0.00;;;;;;;18.97;64.21;100998.88;5014829;28;20148;-76
2023/06/27 07:13:21;;;;;;;0.00;0.00;;;;;;;18.97;64.22;101002.47;4988157;28;20083;-76
2023/06/27 07:15:46;;;;;;;0.00;0.00;;;;;;;19.02;64.04;100993.22;5002197;28;20112;-76
2023/06/27 07:18:11;;;;;;;0.00;0.00;;;;;;;19.27;64.19;101011.25;5024619;28;20036;-74
2023/06/27 07:20:37;;;;;;;0.00;0.00;;;;;;;19.61;63.40;101009.94;5005999;28;20025;-75
2023/06/27 07:23:02;;;;;;;0.00;0.00;;;;;;;19.82;62.44;100998.41;5016357;28;20684;-75
2023/06/27 07:25:28;;;;;;;0.00;0.00;;;;;;;20.16;61.71;101014.47;5018954;28;20025;-75
2023/06/27 07:27:54;;;;;;;0.00;0.00;;;;;;;20.36;61.18;101007.56;5030874;28;20029;-75
2023/06/27 07:30:19;;;;;;;0.00;0.00;;;;;;;20.55;60.66;101006.53;5035879;28;20055;-75
2023/06/27 07:32:45;;;;;;;0.00;0.00;;;;;;;20.67;60.11;101003.97;5004176;28;20041;-75
2023/06/27 07:35:10;;;;;;;0.00;0.00;;;;;;;20.84;59.48;101010.75;5041073;28;20025;-75
2023/06/27 07:37:37;;;;;;;0.00;0.00;;;;;;;21.03;59.26;101008.53;5039770;28;20475;-74
2023/06/27 07:40:04;;;;;;;0.00;0.00;;;;;;;21.16;57.89;101011.50;5011995;28;20083;-75
2023/06/27 07:42:30;;;;;;;0.00;0.00;;;;;;;21.15;56.85;101004.31;5049240;28;20021;-74
2023/06/27 07:44:55;;;;;;;0.00;0.00;;;;;;;21.12;56.32;101002.19;5026255;28;20036;-74
2023/06/27 07:47:21;;;;;;;0.00;0.00;;;;;;;21.12;56.17;101016.09;5021496;28;20035;-76
2023/06/27 07:49:46;;;;;;;0.00;0.00;;;;;;;21.18;56.67;101009.22;5041004;28;20025;-75
2023/06/27 07:52:11;;;;;;;0.00;0.00;;;;;;;21.28;55.90;101014.47;5019162;28;20017;-75
2023/06/27 07:54:37;;;;;;;0.00;0.00;;;;;;;21.23;55.64;101007.09;5021176;28;20705;-74
2023/06/27 07:57:03;;;;;;;0.00;0.00;;;;;;;21.30;54.93;101011.38;5038101;28;20478;-74
2023/06/27 07:59:29;;;;;;;0.00;0.00;;;;;;;21.33;55.47;101017.09;5017174;28;20029;-76
2023/06/27 08:01:54;;;;;;;0.00;0.00;;;;;;;21.54;55.19;101019.28;5019242;28;20016;-75
2023/06/27 08:04:21;;;;;;;0.00;0.00;;;;;;;21.59;54.55;101013.56;5029393;28;20021;-75
2023/06/27 08:06:48;;;;;;;0.00;0.00;;;;;;;21.42;54.31;101026.28;4993684;28;20037;-75
2023/06/27 08:09:14;;;;;;;0.00;0.00;;;;;;;21.26;55.09;101016.75;5045464;28;20491;-74
2023/06/27 08:11:40;;;;;;;0.00;0.00;;;;;;;21.38;55.44;101025.28;5049121;28;20064;-75
2023/06/27 08:14:05;;;;;;;0.00;0.00;;;;;;;21.52;55.08;101029.91;5029591;28;20025;-75
2023/06/27 08:16:36;;;;;;;0.00;0.00;;;;;;;21.65;54.00;101023.38;5012918;28;20041;-75
2023/06/27 08:19:08;;;;;;;0.00;0.00;;;;;;;21.71;54.04;101013.75;5055665;28;20041;-75
2023/06/27 08:21:33;;;;;;;0.00;0.00;;;;;;;21.92;53.70;101021.41;5044422;28;20056;-76
2023/06/27 08:23:59;;;;;;;0.00;0.00;;;;;;;22.12;53.61;101020.75;5017005;28;20041;-75
2023/06/27 08:26:24;;;;;;;0.00;0.00;;;;;;;22.58;53.04;101018.34;5036021;28;20052;-75
2023/06/27 08:28:50;;;;;;;0.00;0.00;;;;;;;23.14;51.93;101021.09;5050510;28;20029;-76
2023/06/27 08:31:17;;;;;;;0.00;0.00;;;;;;;23.25;51.00;101020.69;5013679;28;20517;-76
2023/06/27 08:33:42;;;;;;;0.00;0.00;;;;;;;23.22;49.77;101021.34;5057121;28;20028;-75
2023/06/27 08:36:08;;;;;;;0.00;0.00;;;;;;;23.25;49.96;101015.91;5005845;28;20391;-75
2023/06/27 08:38:33;;;;;;;0.00;0.00;;;;;;;23.25;49.32;101015.13;5002663;28;20030;-75
2023/06/27 08:41:01;;;;;;;0.00;0.00;;;;;;;23.41;49.47;101012.50;5025154;28;20479;-75
2023/06/27 08:43:26;;;;;;;0.00;0.00;;;;;;;23.32;48.71;101018.19;5038445;28;20031;-76
2023/06/27 08:45:54;;;;;;;0.00;0.00;;;;;;;23.52;48.82;101025.75;5039916;28;20013;-75
2023/06/27 08:48:19;;;;;;;0.00;0.00;;;;;;;23.57;48.14;101015.53;5026430;28;20039;-76
2023/06/27 08:50:46;;;;;;;0.00;0.00;;;;;;;23.59;46.62;101018.81;5045280;28;20036;-75
2023/06/27 08:53:17;;;;;;;0.00;0.00;;;;;;;23.55;47.46;101020.63;5023904;28;20133;-75
2023/06/27 08:55:48;;;;;;;0.00;0.00;;;;;;;23.73;47.38;101019.34;5023955;28;20029;-77
2023/06/27 08:58:20;;;;;;;0.00;0.00;;;;;;;23.60;46.85;101009.28;5032670;28;21003;-76
2023/06/27 09:00:48;;;;;;;0.00;0.00;;;;;;;23.52;47.26;101014.59;5031052;28;20433;-75
2023/06/27 09:03:19;;;;;;;0.00;0.00;;;;;;;23.33;47.30;101000.28;5013510;28;20060;-77
2023/06/27 09:05:53;;;;;;;0.00;0.00;;;;;;;23.02;47.47;101007.00;5040966;28;20041;-76
2023/06/27 09:08:19;;;;;;;0.00;0.00;;;;;;;22.97;48.26;101004.41;5032651;28;20430;-76
2023/06/27 09:10:52;;;;;;;0.00;0.00;;;;;;;22.68;47.94;101003.22;5022040;28;20234;-76
2023/06/27 09:13:19;;;;;;;0.00;0.00;;;;;;;22.37;48.94;101004.34;5028608;28;20057;-76
2023/06/27 09:15:44;;;;;;;0.00;0.00;;;;;;;22.48;49.25;100993.63;5030960;28;20132;-75
2023/06/27 09:18:17;;;;;;;0.00;0.00;;;;;;;22.46;49.02;100985.59;5010896;28;20454;-76
2023/06/27 09:20:44;;;;;;;0.00;0.00;;;;;;;22.42;48.81;101006.94;5010658;28;20037;-76
2023/06/27 09:23:13;;;;;;;0.00;0.00;;;;;;;22.23;49.16;100982.19;5042430;28;20049;-76
2023/06/27 09:25:38;;;;;;;0.00;0.00;;;;;;;22.37;48.64;100990.41;5008489;28;20033;-78
2023/06/27 09:28:17;;;;;;;0.00;0.00;;;;;;;22.69;48.06;100979.75;5026007;28;20067;-76
2023/06/27 09:30:54;;;;;;;0.00;0.00;;;;;;;23.16;47.53;100984.47;5028618;28;20025;-75
2023/06/27 09:33:19;;;;;;;0.00;0.00;;;;;;;23.57;46.51;100993.19;5029927;28;20017;-77
2023/06/27 09:35:47;;;;;;;0.00;0.00;;;;;;;23.63;45.54;100986.25;5027139;28;20028;-77
2023/06/27 09:38:13;;;;;;;0.00;0.00;;;;;;;23.71;45.53;100993.72;5025386;28;20029;-76
2023/06/27 09:40:42;;;;;;;0.00;0.00;;;;;;;24.13;45.15;100982.50;5023411;28;20060;-76
2023/06/27 09:43:08;;;;;;;0.00;0.00;;;;;;;24.68;43.79;101002.78;5049265;28;20029;-77
2023/06/27 09:45:34;;;;;;;0.00;0.00;;;;;;;25.19;43.16;100999.63;5010992;28;20033;-76
2023/06/27 09:48:02;;;;;;;0.00;0.00;;;;;;;25.41;42.62;101000.34;5006661;28;20063;-76
2023/06/27 09:50:31;;;;;;;0.00;0.00;;;;;;;24.97;41.53;100980.53;5020793;28;20033;-76
2023/06/27 09:53:04;;;;;;;0.00;0.00;;;;;;;24.17;43.29;100972.28;5020947;28;20049;-76
2023/06/27 09:55:29;;;;;;;0.00;0.00;;;;;;;24.10;44.10;100974.81;5017266;28;20017;-77
2023/06/27 09:57:57;;;;;;;0.00;0.00;;;;;;;24.07;44.14;100972.72;5021651;28;20033;-76
2023/06/27 10:00:28;;;;;;;0.00;0.00;;;;;;;24.25;44.09;100978.94;5045524;28;20099;-76
2023/06/27 10:02:54;;;;;;;0.00;0.00;;;;;;;24.40;43.23;100983.06;5032003;28;20113;-77
2023/06/27 10:05:21;;;;;;;0.00;0.00;;;;;;;24.00;42.24;100994.81;5030595;28;20104;-76
2023/06/27 10:07:50;;;;;;;0.00;0.00;;;;;;;23.79;42.54;100976.09;5011470;28;20382;-76
2023/06/27 10:10:16;;;;;;;0.00;0.00;;;;;;;23.78;42.45;100976.44;5027484;28;20087;-75
2023/06/27 10:12:42;;;;;;;0.00;0.00;;;;;;;23.83;43.05;100977.03;5011898;28;20032;-76
2023/06/27 10:15:09;;;;;;;0.00;0.00;;;;;;;24.16;42.98;100973.44;5046376;28;20035;-76
2023/06/27 10:17:35;;;;;;;0.00;0.00;;;;;;;24.40;42.89;100966.28;5024863;28;20692;-75
2023/06/27 10:20:03;;;;;;;0.00;0.00;;;;;;;24.72;41.53;100969.34;5013572;28;20112;-75
2023/06/27 10:22:31;;;;;;;0.00;0.00;;;;;;;25.04;41.11;100975.16;5024533;28;20068;-74
2023/06/27 10:25:04;;;;;;;0.00;0.00;;;;;;;25.26;40.04;100966.28;5027915;28;20025;-77
2023/06/27 10:27:38;;;;;;;0.00;0.00;;;;;;;25.36;39.53;100976.19;5041427;28;20094;-75
2023/06/27 10:30:23;;;;;;;0.00;0.00;;;;;;;25.41;39.09;100959.16;5017727;28;20112;-75
2023/06/27 10:32:49;;;;;;;0.00;0.00;;;;;;;25.35;39.07;100973.72;5039206;28;20028;-76
2023/06/27 10:36:10;;;;;;;0.00;0.00;;;;;;;25.07;39.76;100974.44;5033609;28;20021;-75
2023/06/27 10:38:38;;;;;;;0.00;0.00;;;;;;;24.95;40.32;100961.31;5026382;28;20052;-76
2023/06/27 10:41:06;;;;;;;0.00;0.00;;;;;;;24.91;40.60;100955.59;5028927;28;20021;-75
2023/06/27 10:43:50;;;;;;;0.00;0.00;;;;;;;26.19;39.21;100958.94;5035610;28;20356;-76
2023/06/27 10:46:23;;;;;;;0.00;0.00;;;;;;;26.98;37.18;100963.72;5029969;28;20107;-75
2023/06/27 10:49:01;;;;;;;0.00;0.00;;;;;;;27.02;36.59;100971.41;5034424;28;20058;-75
2023/06/27 10:51:34;;;;;;;0.00;0.00;;;;;;;26.87;36.42;100962.66;5023300;28;20025;-75
2023/06/27 10:54:12;;;;;;;0.00;0.00;;;;;;;26.53;36.03;100967.78;5028500;28;20029;-76
2023/06/27 10:56:43;;;;;;;0.00;0.00;;;;;;;26.41;36.62;100960.28;5041516;28;20116;-76
2023/06/27 10:59:15;;;;;;;0.00;0.00;;;;;;;26.02;37.02;100973.28;5025998;28;20112;-76
2023/06/27 11:01:42;;;;;;;0.00;0.00;;;;;;;25.48;38.14;100961.34;5024080;28;20483;-74
2023/06/27 11:04:22;;;;;;;0.00;0.00;;;;;;;24.90;38.71;100953.97;5031195;28;20059;-78
2023/06/27 11:06:47;;;;;;;0.00;0.00;;;;;;;24.67;39.33;100962.00;5013791;28;20033;-76
2023/06/27 11:09:18;;;;;;;0.00;0.00;;;;;;;24.91;40.26;100965.97;5021526;28;20032;-77
2023/06/27 11:12:11;;;;;;;0.00;0.00;;;;;;;25.43;38.82;100970.00;5024820;28;20052;-77
2023/06/27 11:14:41;;;;;;;0.00;0.00;;;;;;;26.10;38.25;100969.50;5030125;28;20813;-76
2023/06/27 11:17:07;;;;;;;0.00;0.00;;;;;;;26.56;36.45;100969.91;5051567;28;20048;-76
2023/06/27 11:19:34;;;;;;;0.00;0.00;;;;;;;26.51;36.54;100972.97;5031210;28;20064;-76
2023/06/27 11:22:00;;;;;;;0.00;0.00;;;;;;;25.97;37.23;100974.31;5034104;28;20052;-76
2023/06/27 11:24:27;;;;;;;0.00;0.00;;;;;;;25.25;38.59;100970.22;5025415;28;20022;-76